sensor_id;sensor_type;location;lat;lon;timestamp;pressure;altitude;pressure_sealevel;temperature
69435;BMP180;56625;54.322;18.582;2023-01-29T00:00:09;101335.60;;;0.90
69435;BMP180;56625;54.322;18.582;2023-01-29T00:02:57;101344.40;;;0.90
69435;BMP180;56625;54.322;18.582;2023-01-29T00:05:26;101344.40;;;0.90
69435;BMP180;56625;54.322;18.582;2023-01-29T00:07:55;101355.40;;;0.90
69435;BMP180;56625;54.322;18.582;2023-01-29T00:10:25;101353.80;;;0.90
69435;BMP180;56625;54.322;18.582;2023-01-29T00:12:53;101363.20;;;0.90
69435;BMP180;56625;54.322;18.582;2023-01-29T00:15:21;101378.00;;;1.00
69435;BMP180;56625;54.322;18.582;2023-01-29T00:17:49;101377.40;;;1.00
69435;BMP180;56625;54.322;18.582;2023-01-29T00:20:17;101372.00;;;1.00
69435;BMP180;56625;54.322;18.582;2023-01-29T00:22:46;101375.40;;;1.10
69435;BMP180;56625;54.322;18.582;2023-01-29T00:25:14;101377.20;;;1.10
69435;BMP180;56625;54.322;18.582;2023-01-29T00:27:41;101377.80;;;1.10
69435;BMP180;56625;54.322;18.582;2023-01-29T00:30:11;101373.40;;;1.10
69435;BMP180;56625;54.322;18.582;2023-01-29T00:32:40;101384.00;;;1.10
69435;BMP180;56625;54.322;18.582;2023-01-29T00:35:09;101380.00;;;1.14
69435;BMP180;56625;54.322;18.582;2023-01-29T00:37:37;101379.00;;;1.12
69435;BMP180;56625;54.322;18.582;2023-01-29T00:40:05;101381.60;;;1.10
69435;BMP180;56625;54.322;18.582;2023-01-29T00:42:33;101382.60;;;1.14
69435;BMP180;56625;54.322;18.582;2023-01-29T00:45:20;101373.80;;;1.14
69435;BMP180;56625;54.322;18.582;2023-01-29T00:47:48;101370.00;;;1.10
69435;BMP180;56625;54.322;18.582;2023-01-29T00:50:16;101370.80;;;1.12
69435;BMP180;56625;54.322;18.582;2023-01-29T00:52:45;101376.60;;;1.12
69435;BMP180;56625;54.322;18.582;2023-01-29T00:55:15;101393.00;;;1.16
69435;BMP180;56625;54.322;18.582;2023-01-29T00:57:43;101392.80;;;1.18
69435;BMP180;56625;54.322;18.582;2023-01-29T01:00:15;101399.20;;;1.10
69435;BMP180;56625;54.322;18.582;2023-01-29T01:02:44;101404.00;;;1.10
69435;BMP180;56625;54.322;18.582;2023-01-29T01:05:31;101402.00;;;1.10
69435;BMP180;56625;54.322;18.582;2023-01-29T01:07:59;101392.40;;;1.10
69435;BMP180;56625;54.322;18.582;2023-01-29T01:10:32;101392.40;;;1.10
69435;BMP180;56625;54.322;18.582;2023-01-29T01:13:04;101389.00;;;1.10
69435;BMP180;56625;54.322;18.582;2023-01-29T01:15:37;101396.40;;;1.10
69435;BMP180;56625;54.322;18.582;2023-01-29T01:18:05;101398.20;;;1.10
69435;BMP180;56625;54.322;18.582;2023-01-29T01:20:35;101398.20;;;1.10
69435;BMP180;56625;54.322;18.582;2023-01-29T01:23:03;101399.40;;;1.10
69435;BMP180;56625;54.322;18.582;2023-01-29T01:25:32;101396.00;;;1.00
69435;BMP180;56625;54.322;18.582;2023-01-29T01:28:00;101393.80;;;1.00
69435;BMP180;56625;54.322;18.582;2023-01-29T01:30:28;101397.60;;;0.90
69435;BMP180;56625;54.322;18.582;2023-01-29T01:32:56;101398.40;;;0.90
69435;BMP180;56625;54.322;18.582;2023-01-29T01:35:24;101393.20;;;0.90
69435;BMP180;56625;54.322;18.582;2023-01-29T01:37:52;101384.00;;;0.80
69435;BMP180;56625;54.322;18.582;2023-01-29T01:40:23;101389.00;;;0.80
69435;BMP180;56625;54.322;18.582;2023-01-29T01:42:56;101382.60;;;0.80
69435;BMP180;56625;54.322;18.582;2023-01-29T01:45:34;101380.60;;;0.80
69435;BMP180;56625;54.322;18.582;2023-01-29T01:50:50;101363.60;;;0.80
69435;BMP180;56625;54.322;18.582;2023-01-29T01:53:32;101366.00;;;0.80
69435;BMP180;56625;54.322;18.582;2023-01-29T01:56:07;101366.40;;;0.80
69435;BMP180;56625;54.322;18.582;2023-01-29T01:58:42;101362.20;;;0.80
69435;BMP180;56625;54.322;18.582;2023-01-29T02:01:12;101351.60;;;0.78
69435;BMP180;56625;54.322;18.582;2023-01-29T02:03:49;101359.20;;;0.78
69435;BMP180;56625;54.322;18.582;2023-01-29T02:06:41;101337.80;;;0.70
69435;BMP180;56625;54.322;18.582;2023-01-29T02:09:36;101336.40;;;0.70
69435;BMP180;56625;54.322;18.582;2023-01-29T02:12:10;101326.40;;;0.70
69435;BMP180;56625;54.322;18.582;2023-01-29T02:14:41;101326.00;;;0.70
69435;BMP180;56625;54.322;18.582;2023-01-29T02:17:14;101327.20;;;0.70
69435;BMP180;56625;54.322;18.582;2023-01-29T02:20:21;101330.60;;;0.70
69435;BMP180;56625;54.322;18.582;2023-01-29T02:31:40;101298.60;;;0.70
69435;BMP180;56625;54.322;18.582;2023-01-29T02:34:28;101304.20;;;0.70
69435;BMP180;56625;54.322;18.582;2023-01-29T02:37:37;101291.00;;;0.80
69435;BMP180;56625;54.322;18.582;2023-01-29T02:43:03;101268.60;;;0.80
69435;BMP180;56625;54.322;18.582;2023-01-29T02:48:22;101268.00;;;0.80
69435;BMP180;56625;54.322;18.582;2023-01-29T02:50:59;101283.60;;;0.88
69435;BMP180;56625;54.322;18.582;2023-01-29T02:53:41;101276.80;;;0.90
69435;BMP180;56625;54.322;18.582;2023-01-29T02:56:19;101279.60;;;0.90
69435;BMP180;56625;54.322;18.582;2023-01-29T02:59:01;101276.80;;;0.90
69435;BMP180;56625;54.322;18.582;2023-01-29T03:01:43;101275.00;;;0.90
69435;BMP180;56625;54.322;18.582;2023-01-29T03:04:21;101281.80;;;1.00
69435;BMP180;56625;54.322;18.582;2023-01-29T03:07:00;101283.40;;;1.00
69435;BMP180;56625;54.322;18.582;2023-01-29T03:09:40;101281.00;;;1.00
69435;BMP180;56625;54.322;18.582;2023-01-29T03:12:21;101285.40;;;1.10
69435;BMP180;56625;54.322;18.582;2023-01-29T03:15:12;101289.60;;;1.10
69435;BMP180;56625;54.322;18.582;2023-01-29T03:17:54;101289.20;;;1.10
69435;BMP180;56625;54.322;18.582;2023-01-29T03:20:42;101289.00;;;1.12
69435;BMP180;56625;54.322;18.582;2023-01-29T03:23:27;101291.40;;;1.20
69435;BMP180;56625;54.322;18.582;2023-01-29T03:26:17;101288.80;;;1.20
69435;BMP180;56625;54.322;18.582;2023-01-29T03:29:06;101279.80;;;1.20
69435;BMP180;56625;54.322;18.582;2023-01-29T03:31:56;101269.40;;;1.20
69435;BMP180;56625;54.322;18.582;2023-01-29T03:34:41;101252.20;;;1.20
69435;BMP180;56625;54.322;18.582;2023-01-29T03:37:22;101260.00;;;1.20
69435;BMP180;56625;54.322;18.582;2023-01-29T03:39:53;101251.20;;;1.12
69435;BMP180;56625;54.322;18.582;2023-01-29T03:42:42;101256.40;;;1.14
69435;BMP180;56625;54.322;18.582;2023-01-29T03:45:37;101248.00;;;1.14
69435;BMP180;56625;54.322;18.582;2023-01-29T03:48:54;101242.80;;;1.12
69435;BMP180;56625;54.322;18.582;2023-01-29T03:52:09;101238.60;;;1.10
69435;BMP180;56625;54.322;18.582;2023-01-29T03:54:57;101235.00;;;1.10
69435;BMP180;56625;54.322;18.582;2023-01-29T04:00:28;101230.20;;;1.10
69435;BMP180;56625;54.322;18.582;2023-01-29T04:03:34;101222.80;;;1.10
69435;BMP180;56625;54.322;18.582;2023-01-29T04:06:15;101217.40;;;1.10
69435;BMP180;56625;54.322;18.582;2023-01-29T04:11:29;101208.60;;;1.10
69435;BMP180;56625;54.322;18.582;2023-01-29T04:13:57;101213.20;;;1.10
69435;BMP180;56625;54.322;18.582;2023-01-29T04:16:31;101207.80;;;1.10
69435;BMP180;56625;54.322;18.582;2023-01-29T04:19:01;101205.80;;;1.10
69435;BMP180;56625;54.322;18.582;2023-01-29T04:21:31;101205.20;;;1.10
69435;BMP180;56625;54.322;18.582;2023-01-29T04:23:59;101212.00;;;1.10
69435;BMP180;56625;54.322;18.582;2023-01-29T04:32:15;101198.40;;;1.14
69435;BMP180;56625;54.322;18.582;2023-01-29T04:37:35;101180.40;;;1.16
69435;BMP180;56625;54.322;18.582;2023-01-29T04:40:19;101183.60;;;1.18
69435;BMP180;56625;54.322;18.582;2023-01-29T04:43:15;101182.60;;;1.20
69435;BMP180;56625;54.322;18.582;2023-01-29T04:49:01;101184.80;;;1.20
69435;BMP180;56625;54.322;18.582;2023-01-29T04:51:50;101178.00;;;1.20
69435;BMP180;56625;54.322;18.582;2023-01-29T04:54:48;101163.00;;;1.20
69435;BMP180;56625;54.322;18.582;2023-01-29T04:57:39;101166.80;;;1.20
69435;BMP180;56625;54.322;18.582;2023-01-29T05:00:27;101170.00;;;1.20
69435;BMP180;56625;54.322;18.582;2023-01-29T05:02:58;101164.40;;;1.20
69435;BMP180;56625;54.322;18.582;2023-01-29T05:05:29;101153.60;;;1.20
69435;BMP180;56625;54.322;18.582;2023-01-29T05:07:58;101149.40;;;1.20
69435;BMP180;56625;54.322;18.582;2023-01-29T05:10:27;101134.00;;;1.20
69435;BMP180;56625;54.322;18.582;2023-01-29T05:13:02;101128.60;;;1.30
69435;BMP180;56625;54.322;18.582;2023-01-29T05:15:43;101127.20;;;1.28
69435;BMP180;56625;54.322;18.582;2023-01-29T05:18:11;101138.60;;;1.30
69435;BMP180;56625;54.322;18.582;2023-01-29T05:20:43;101131.00;;;1.30
69435;BMP180;56625;54.322;18.582;2023-01-29T05:23:19;101131.40;;;1.30
69435;BMP180;56625;54.322;18.582;2023-01-29T05:25:49;101130.20;;;1.32
69435;BMP180;56625;54.322;18.582;2023-01-29T05:28:18;101135.40;;;1.40
69435;BMP180;56625;54.322;18.582;2023-01-29T05:30:50;101134.80;;;1.40
69435;BMP180;56625;54.322;18.582;2023-01-29T05:33:30;101139.60;;;1.40
69435;BMP180;56625;54.322;18.582;2023-01-29T05:35:58;101134.40;;;1.50
69435;BMP180;56625;54.322;18.582;2023-01-29T05:38:26;101124.40;;;1.54
69435;BMP180;56625;54.322;18.582;2023-01-29T05:40:58;101119.40;;;1.60
69435;BMP180;56625;54.322;18.582;2023-01-29T05:43:26;101116.60;;;1.60
69435;BMP180;56625;54.322;18.582;2023-01-29T05:45:57;101116.00;;;1.60
69435;BMP180;56625;54.322;18.582;2023-01-29T05:48:27;101114.40;;;1.60
69435;BMP180;56625;54.322;18.582;2023-01-29T05:51:03;101112.20;;;1.68
69435;BMP180;56625;54.322;18.582;2023-01-29T05:53:32;101112.40;;;1.70
69435;BMP180;56625;54.322;18.582;2023-01-29T05:56:02;101116.00;;;1.70
69435;BMP180;56625;54.322;18.582;2023-01-29T05:58:31;101118.80;;;1.70
69435;BMP180;56625;54.322;18.582;2023-01-29T06:01:19;101113.40;;;1.70
69435;BMP180;56625;54.322;18.582;2023-01-29T06:03:48;101117.20;;;1.70
69435;BMP180;56625;54.322;18.582;2023-01-29T06:06:16;101120.80;;;1.70
69435;BMP180;56625;54.322;18.582;2023-01-29T06:08:45;101113.40;;;1.70
69435;BMP180;56625;54.322;18.582;2023-01-29T06:11:14;101120.00;;;1.70
69435;BMP180;56625;54.322;18.582;2023-01-29T06:13:45;101121.60;;;1.74
69435;BMP180;56625;54.322;18.582;2023-01-29T06:16:13;101125.20;;;1.80
69435;BMP180;56625;54.322;18.582;2023-01-29T06:18:42;101117.20;;;1.80
69435;BMP180;56625;54.322;18.582;2023-01-29T06:21:12;101118.80;;;1.80
69435;BMP180;56625;54.322;18.582;2023-01-29T06:23:40;101118.80;;;1.80
69435;BMP180;56625;54.322;18.582;2023-01-29T06:26:12;101119.60;;;1.80
69435;BMP180;56625;54.322;18.582;2023-01-29T06:28:41;101121.40;;;1.80
69435;BMP180;56625;54.322;18.582;2023-01-29T06:31:10;101122.80;;;1.86
69435;BMP180;56625;54.322;18.582;2023-01-29T06:33:58;101115.00;;;1.90
69435;BMP180;56625;54.322;18.582;2023-01-29T06:36:26;101123.60;;;1.90
69435;BMP180;56625;54.322;18.582;2023-01-29T06:38:54;101114.00;;;2.00
69435;BMP180;56625;54.322;18.582;2023-01-29T06:41:22;101110.60;;;2.00
69435;BMP180;56625;54.322;18.582;2023-01-29T06:43:52;101108.20;;;2.04
69435;BMP180;56625;54.322;18.582;2023-01-29T06:46:20;101112.00;;;2.10
69435;BMP180;56625;54.322;18.582;2023-01-29T06:48:48;101107.00;;;2.10
69435;BMP180;56625;54.322;18.582;2023-01-29T06:51:16;101109.00;;;2.10
69435;BMP180;56625;54.322;18.582;2023-01-29T06:53:44;101106.60;;;2.18
69435;BMP180;56625;54.322;18.582;2023-01-29T06:56:13;101109.20;;;2.20
69435;BMP180;56625;54.322;18.582;2023-01-29T06:58:41;101110.00;;;2.20
69435;BMP180;56625;54.322;18.582;2023-01-29T07:01:11;101101.80;;;2.20
69435;BMP180;56625;54.322;18.582;2023-01-29T07:03:59;101094.60;;;2.30
69435;BMP180;56625;54.322;18.582;2023-01-29T07:06:29;101084.20;;;2.30
69435;BMP180;56625;54.322;18.582;2023-01-29T07:08:57;101089.60;;;2.30
69435;BMP180;56625;54.322;18.582;2023-01-29T07:11:25;101083.80;;;2.30
69435;BMP180;56625;54.322;18.582;2023-01-29T07:13:53;101086.60;;;2.30
69435;BMP180;56625;54.322;18.582;2023-01-29T07:16:21;101084.80;;;2.30
69435;BMP180;56625;54.322;18.582;2023-01-29T07:18:50;101077.80;;;2.38
69435;BMP180;56625;54.322;18.582;2023-01-29T07:21:17;101073.80;;;2.40
69435;BMP180;56625;54.322;18.582;2023-01-29T07:23:51;101076.80;;;2.40
69435;BMP180;56625;54.322;18.582;2023-01-29T07:26:19;101076.60;;;2.40
69435;BMP180;56625;54.322;18.582;2023-01-29T07:28:47;101072.40;;;2.42
69435;BMP180;56625;54.322;18.582;2023-01-29T07:31:15;101066.80;;;2.50
69435;BMP180;56625;54.322;18.582;2023-01-29T07:33:44;101068.00;;;2.50
69435;BMP180;56625;54.322;18.582;2023-01-29T07:36:12;101066.00;;;2.50
69435;BMP180;56625;54.322;18.582;2023-01-29T07:38:40;101061.80;;;2.50
69435;BMP180;56625;54.322;18.582;2023-01-29T07:41:10;101057.00;;;2.50
69435;BMP180;56625;54.322;18.582;2023-01-29T07:43:38;101048.20;;;2.50
69435;BMP180;56625;54.322;18.582;2023-01-29T07:46:07;101043.60;;;2.50
69435;BMP180;56625;54.322;18.582;2023-01-29T07:48:35;101035.60;;;2.50
69435;BMP180;56625;54.322;18.582;2023-01-29T07:51:04;101039.40;;;2.54
69435;BMP180;56625;54.322;18.582;2023-01-29T07:53:32;101049.80;;;2.60
69435;BMP180;56625;54.322;18.582;2023-01-29T07:56:01;101045.80;;;2.60
69435;BMP180;56625;54.322;18.582;2023-01-29T07:58:29;101045.40;;;2.60
69435;BMP180;56625;54.322;18.582;2023-01-29T08:00:57;101045.40;;;2.70
69435;BMP180;56625;54.322;18.582;2023-01-29T08:03:25;101042.00;;;2.70
69435;BMP180;56625;54.322;18.582;2023-01-29T08:05:53;101042.80;;;2.70
69435;BMP180;56625;54.322;18.582;2023-01-29T08:08:21;101039.60;;;2.78
69435;BMP180;56625;54.322;18.582;2023-01-29T08:10:48;101038.00;;;2.80
69435;BMP180;56625;54.322;18.582;2023-01-29T08:13:16;101037.80;;;2.80
69435;BMP180;56625;54.322;18.582;2023-01-29T08:15:45;101034.00;;;2.90
69435;BMP180;56625;54.322;18.582;2023-01-29T08:18:13;101029.40;;;2.90
69435;BMP180;56625;54.322;18.582;2023-01-29T08:20:41;101028.60;;;2.90
69435;BMP180;56625;54.322;18.582;2023-01-29T08:23:14;101025.00;;;2.90
69435;BMP180;56625;54.322;18.582;2023-01-29T08:25:43;101021.80;;;2.90
69435;BMP180;56625;54.322;18.582;2023-01-29T08:28:14;101025.20;;;2.96
69435;BMP180;56625;54.322;18.582;2023-01-29T08:30:57;101025.80;;;3.00
69435;BMP180;56625;54.322;18.582;2023-01-29T08:33:25;101026.00;;;3.00
69435;BMP180;56625;54.322;18.582;2023-01-29T08:36:07;101023.20;;;3.00
69435;BMP180;56625;54.322;18.582;2023-01-29T08:38:35;101018.80;;;2.96
69435;BMP180;56625;54.322;18.582;2023-01-29T08:41:03;101015.40;;;2.96
69435;BMP180;56625;54.322;18.582;2023-01-29T08:43:33;101014.20;;;3.00
69435;BMP180;56625;54.322;18.582;2023-01-29T08:46:05;101008.80;;;3.00
69435;BMP180;56625;54.322;18.582;2023-01-29T08:48:33;101016.80;;;3.10
69435;BMP180;56625;54.322;18.582;2023-01-29T08:51:01;101021.20;;;3.10
69435;BMP180;56625;54.322;18.582;2023-01-29T08:53:31;101024.20;;;3.10
69435;BMP180;56625;54.322;18.582;2023-01-29T08:56:00;101023.80;;;3.10
69435;BMP180;56625;54.322;18.582;2023-01-29T08:58:28;101016.60;;;3.10
69435;BMP180;56625;54.322;18.582;2023-01-29T09:00:56;101017.00;;;3.20
69435;BMP180;56625;54.322;18.582;2023-01-29T09:03:24;101013.00;;;3.20
69435;BMP180;56625;54.322;18.582;2023-01-29T09:05:52;101008.40;;;3.20
69435;BMP180;56625;54.322;18.582;2023-01-29T09:08:20;101004.80;;;3.20
69435;BMP180;56625;54.322;18.582;2023-01-29T09:10:48;101000.80;;;3.20
69435;BMP180;56625;54.322;18.582;2023-01-29T09:13:16;101002.20;;;3.20
69435;BMP180;56625;54.322;18.582;2023-01-29T09:15:43;101003.00;;;3.20
69435;BMP180;56625;54.322;18.582;2023-01-29T09:18:12;100994.60;;;3.20
69435;BMP180;56625;54.322;18.582;2023-01-29T09:20:40;101000.40;;;3.20
69435;BMP180;56625;54.322;18.582;2023-01-29T09:23:09;101002.40;;;3.24
69435;BMP180;56625;54.322;18.582;2023-01-29T09:25:38;100998.20;;;3.26
69435;BMP180;56625;54.322;18.582;2023-01-29T09:28:05;101002.20;;;3.28
69435;BMP180;56625;54.322;18.582;2023-01-29T09:30:33;101000.20;;;3.30
69435;BMP180;56625;54.322;18.582;2023-01-29T09:33:06;100996.40;;;3.30
69435;BMP180;56625;54.322;18.582;2023-01-29T09:35:34;100999.20;;;3.30
69435;BMP180;56625;54.322;18.582;2023-01-29T09:38:05;100996.20;;;3.30
69435;BMP180;56625;54.322;18.582;2023-01-29T09:41:04;100998.60;;;3.30
69435;BMP180;56625;54.322;18.582;2023-01-29T09:43:47;100996.00;;;3.30
69435;BMP180;56625;54.322;18.582;2023-01-29T09:48:58;100994.40;;;3.30
69435;BMP180;56625;54.322;18.582;2023-01-29T09:51:40;100984.60;;;3.30
69435;BMP180;56625;54.322;18.582;2023-01-29T09:54:26;100973.40;;;3.30
69435;BMP180;56625;54.322;18.582;2023-01-29T09:57:02;100972.60;;;3.34
69435;BMP180;56625;54.322;18.582;2023-01-29T09:59:30;100978.60;;;3.40
69435;BMP180;56625;54.322;18.582;2023-01-29T10:02:10;100975.80;;;3.38
69435;BMP180;56625;54.322;18.582;2023-01-29T10:14:03;100962.60;;;3.30
69435;BMP180;56625;54.322;18.582;2023-01-29T10:17:02;100965.40;;;3.30
69435;BMP180;56625;54.322;18.582;2023-01-29T10:23:29;100965.40;;;3.38
69435;BMP180;56625;54.322;18.582;2023-01-29T10:26:01;100955.60;;;3.40
69435;BMP180;56625;54.322;18.582;2023-01-29T10:28:43;100952.00;;;3.40
69435;BMP180;56625;54.322;18.582;2023-01-29T10:31:34;100954.60;;;3.38
69435;BMP180;56625;54.322;18.582;2023-01-29T10:34:37;100940.40;;;3.36
69435;BMP180;56625;54.322;18.582;2023-01-29T10:37:21;100930.60;;;3.30
69435;BMP180;56625;54.322;18.582;2023-01-29T10:39:51;100933.40;;;3.30
69435;BMP180;56625;54.322;18.582;2023-01-29T10:42:43;100925.60;;;3.30
69435;BMP180;56625;54.322;18.582;2023-01-29T10:45:44;100927.20;;;3.32
69435;BMP180;56625;54.322;18.582;2023-01-29T10:54:54;100922.80;;;3.50
69435;BMP180;56625;54.322;18.582;2023-01-29T11:00:37;100906.80;;;3.50
69435;BMP180;56625;54.322;18.582;2023-01-29T11:03:20;100897.20;;;3.60
69435;BMP180;56625;54.322;18.582;2023-01-29T11:06:16;100887.00;;;3.62
69435;BMP180;56625;54.322;18.582;2023-01-29T11:08:54;100892.00;;;3.70
69435;BMP180;56625;54.322;18.582;2023-01-29T11:11:47;100886.20;;;3.70
69435;BMP180;56625;54.322;18.582;2023-01-29T11:17:25;100881.60;;;3.80
69435;BMP180;56625;54.322;18.582;2023-01-29T11:19:54;100870.20;;;3.80
69435;BMP180;56625;54.322;18.582;2023-01-29T11:22:26;100863.00;;;3.80
69435;BMP180;56625;54.322;18.582;2023-01-29T11:25:15;100860.60;;;3.88
69435;BMP180;56625;54.322;18.582;2023-01-29T11:27:58;100852.60;;;3.90
69435;BMP180;56625;54.322;18.582;2023-01-29T11:30:37;100841.40;;;3.90
69435;BMP180;56625;54.322;18.582;2023-01-29T11:33:17;100845.80;;;3.90
69435;BMP180;56625;54.322;18.582;2023-01-29T11:35:46;100842.00;;;3.90
69435;BMP180;56625;54.322;18.582;2023-01-29T11:40:43;100839.00;;;3.90
69435;BMP180;56625;54.322;18.582;2023-01-29T11:43:22;100843.80;;;3.90
69435;BMP180;56625;54.322;18.582;2023-01-29T11:46:05;100838.60;;;4.00
69435;BMP180;56625;54.322;18.582;2023-01-29T11:51:22;100834.80;;;4.00
69435;BMP180;56625;54.322;18.582;2023-01-29T11:53:57;100833.40;;;4.00
69435;BMP180;56625;54.322;18.582;2023-01-29T11:56:41;100832.80;;;4.00
69435;BMP180;56625;54.322;18.582;2023-01-29T11:59:40;100833.40;;;4.02
69435;BMP180;56625;54.322;18.582;2023-01-29T12:02:31;100830.20;;;4.00
69435;BMP180;56625;54.322;18.582;2023-01-29T12:05:11;100833.60;;;4.00
69435;BMP180;56625;54.322;18.582;2023-01-29T12:07:49;100839.60;;;4.00
69435;BMP180;56625;54.322;18.582;2023-01-29T12:10:37;100837.60;;;4.00
69435;BMP180;56625;54.322;18.582;2023-01-29T12:15:38;100837.60;;;4.00
69435;BMP180;56625;54.322;18.582;2023-01-29T12:18:29;100833.00;;;4.00
69435;BMP180;56625;54.322;18.582;2023-01-29T12:21:02;100831.60;;;4.00
69435;BMP180;56625;54.322;18.582;2023-01-29T12:23:57;100815.00;;;4.00
69435;BMP180;56625;54.322;18.582;2023-01-29T12:26:35;100803.20;;;4.00
69435;BMP180;56625;54.322;18.582;2023-01-29T12:29:22;100797.60;;;3.90
69435;BMP180;56625;54.322;18.582;2023-01-29T12:35:02;100791.20;;;3.90
69435;BMP180;56625;54.322;18.582;2023-01-29T12:40:40;100780.00;;;3.84
69435;BMP180;56625;54.322;18.582;2023-01-29T12:43:17;100771.40;;;3.80
69435;BMP180;56625;54.322;18.582;2023-01-29T12:45:51;100774.00;;;3.80
69435;BMP180;56625;54.322;18.582;2023-01-29T12:48:28;100755.00;;;3.80
69435;BMP180;56625;54.322;18.582;2023-01-29T12:51:23;100762.60;;;3.80
69435;BMP180;56625;54.322;18.582;2023-01-29T12:54:08;100762.00;;;3.80
69435;BMP180;56625;54.322;18.582;2023-01-29T12:56:48;100753.80;;;3.80
69435;BMP180;56625;54.322;18.582;2023-01-29T13:00:02;100752.60;;;3.80
69435;BMP180;56625;54.322;18.582;2023-01-29T13:02:39;100741.20;;;3.84
69435;BMP180;56625;54.322;18.582;2023-01-29T13:05:22;100735.60;;;3.90
69435;BMP180;56625;54.322;18.582;2023-01-29T13:08:09;100727.80;;;3.90
69435;BMP180;56625;54.322;18.582;2023-01-29T13:10:46;100728.00;;;3.90
69435;BMP180;56625;54.322;18.582;2023-01-29T13:13:32;100727.20;;;3.90
69435;BMP180;56625;54.322;18.582;2023-01-29T13:16:10;100714.60;;;3.88
69435;BMP180;56625;54.322;18.582;2023-01-29T13:18:57;100723.80;;;3.80
69435;BMP180;56625;54.322;18.582;2023-01-29T13:21:38;100731.40;;;3.80
69435;BMP180;56625;54.322;18.582;2023-01-29T13:24:21;100725.00;;;3.80
69435;BMP180;56625;54.322;18.582;2023-01-29T13:26:55;100725.60;;;3.80
69435;BMP180;56625;54.322;18.582;2023-01-29T13:29:29;100723.00;;;3.80
69435;BMP180;56625;54.322;18.582;2023-01-29T13:32:00;100722.00;;;3.78
69435;BMP180;56625;54.322;18.582;2023-01-29T13:34:34;100723.60;;;3.70
69435;BMP180;56625;54.322;18.582;2023-01-29T13:37:11;100722.60;;;3.70
69435;BMP180;56625;54.322;18.582;2023-01-29T13:39:51;100717.40;;;3.70
69435;BMP180;56625;54.322;18.582;2023-01-29T13:42:39;100708.60;;;3.66
69435;BMP180;56625;54.322;18.582;2023-01-29T13:45:20;100712.00;;;3.60
69435;BMP180;56625;54.322;18.582;2023-01-29T13:47:51;100703.40;;;3.62
69435;BMP180;56625;54.322;18.582;2023-01-29T13:50:38;100703.20;;;3.62
69435;BMP180;56625;54.322;18.582;2023-01-29T13:53:23;100700.80;;;3.64
69435;BMP180;56625;54.322;18.582;2023-01-29T13:55:52;100710.80;;;3.62
69435;BMP180;56625;54.322;18.582;2023-01-29T14:01:00;100709.20;;;3.60
69435;BMP180;56625;54.322;18.582;2023-01-29T14:06:37;100720.40;;;3.60
69435;BMP180;56625;54.322;18.582;2023-01-29T14:17:25;100724.80;;;3.50
69435;BMP180;56625;54.322;18.582;2023-01-29T14:20:01;100721.80;;;3.50
69435;BMP180;56625;54.322;18.582;2023-01-29T14:22:31;100732.00;;;3.50
69435;BMP180;56625;54.322;18.582;2023-01-29T14:25:04;100726.60;;;3.48
69435;BMP180;56625;54.322;18.582;2023-01-29T14:27:34;100722.40;;;3.48
69435;BMP180;56625;54.322;18.582;2023-01-29T14:30:08;100729.20;;;3.42
69435;BMP180;56625;54.322;18.582;2023-01-29T14:32:47;100722.20;;;3.40
69435;BMP180;56625;54.322;18.582;2023-01-29T14:35:28;100725.40;;;3.40
69435;BMP180;56625;54.322;18.582;2023-01-29T14:38:04;100720.20;;;3.42
69435;BMP180;56625;54.322;18.582;2023-01-29T14:40:33;100712.00;;;3.48
69435;BMP180;56625;54.322;18.582;2023-01-29T14:43:17;100712.40;;;3.50
69435;BMP180;56625;54.322;18.582;2023-01-29T14:45:47;100710.00;;;3.50
69435;BMP180;56625;54.322;18.582;2023-01-29T14:48:39;100716.40;;;3.50
69435;BMP180;56625;54.322;18.582;2023-01-29T14:51:15;100708.60;;;3.50
69435;BMP180;56625;54.322;18.582;2023-01-29T14:56:36;100702.40;;;3.50
69435;BMP180;56625;54.322;18.582;2023-01-29T14:59:19;100703.40;;;3.60
69435;BMP180;56625;54.322;18.582;2023-01-29T15:01:55;100698.80;;;3.60
69435;BMP180;56625;54.322;18.582;2023-01-29T15:04:40;100691.40;;;3.60
69435;BMP180;56625;54.322;18.582;2023-01-29T15:10:20;100688.60;;;3.60
69435;BMP180;56625;54.322;18.582;2023-01-29T15:13:06;100682.40;;;3.58
69435;BMP180;56625;54.322;18.582;2023-01-29T15:15:56;100683.20;;;3.60
69435;BMP180;56625;54.322;18.582;2023-01-29T15:18:41;100674.60;;;3.60
69435;BMP180;56625;54.322;18.582;2023-01-29T15:21:16;100665.40;;;3.50
69435;BMP180;56625;54.322;18.582;2023-01-29T15:23:46;100664.00;;;3.50
69435;BMP180;56625;54.322;18.582;2023-01-29T15:26:21;100650.40;;;3.50
69435;BMP180;56625;54.322;18.582;2023-01-29T15:28:59;100652.60;;;3.50
69435;BMP180;56625;54.322;18.582;2023-01-29T15:31:33;100652.60;;;3.50
69435;BMP180;56625;54.322;18.582;2023-01-29T15:34:06;100655.80;;;3.42
69435;BMP180;56625;54.322;18.582;2023-01-29T15:36:36;100653.00;;;3.40
69435;BMP180;56625;54.322;18.582;2023-01-29T15:39:15;100654.40;;;3.42
69435;BMP180;56625;54.322;18.582;2023-01-29T15:41:44;100649.20;;;3.44
69435;BMP180;56625;54.322;18.582;2023-01-29T15:44:25;100641.80;;;3.40
69435;BMP180;56625;54.322;18.582;2023-01-29T15:46:57;100645.80;;;3.48
69435;BMP180;56625;54.322;18.582;2023-01-29T15:49:34;100638.20;;;3.50
69435;BMP180;56625;54.322;18.582;2023-01-29T15:52:25;100631.80;;;3.50
69435;BMP180;56625;54.322;18.582;2023-01-29T15:54:56;100628.20;;;3.50
69435;BMP180;56625;54.322;18.582;2023-01-29T15:57:35;100626.20;;;3.50
69435;BMP180;56625;54.322;18.582;2023-01-29T16:00:06;100632.40;;;3.50
69435;BMP180;56625;54.322;18.582;2023-01-29T16:02:43;100633.00;;;3.52
69435;BMP180;56625;54.322;18.582;2023-01-29T16:05:19;100633.60;;;3.60
69435;BMP180;56625;54.322;18.582;2023-01-29T16:07:51;100633.80;;;3.58
69435;BMP180;56625;54.322;18.582;2023-01-29T16:10:29;100625.40;;;3.60
69435;BMP180;56625;54.322;18.582;2023-01-29T16:12:59;100620.20;;;3.60
69435;BMP180;56625;54.322;18.582;2023-01-29T16:15:37;100625.80;;;3.60
69435;BMP180;56625;54.322;18.582;2023-01-29T16:18:24;100618.60;;;3.60
69435;BMP180;56625;54.322;18.582;2023-01-29T16:20:59;100615.80;;;3.54